sensor_id;sensor_type;location;lat;lon;timestamp;temperature;humidity
14182;DHT22;7171;50.936;6.764;2022-12-11T00:01:49;2.80;99.90
14182;DHT22;7171;50.936;6.764;2022-12-11T00:04:16;2.70;99.90
14182;DHT22;7171;50.936;6.764;2022-12-11T00:06:42;2.70;99.90
14182;DHT22;7171;50.936;6.764;2022-12-11T00:09:10;2.60;99.90
14182;DHT22;7171;50.936;6.764;2022-12-11T00:11:36;2.60;99.90
14182;DHT22;7171;50.936;6.764;2022-12-11T00:14:03;2.50;99.90
14182;DHT22;7171;50.936;6.764;2022-12-11T00:16:30;2.50;99.90
14182;DHT22;7171;50.936;6.764;2022-12-11T00:18:58;2.50;99.90
14182;DHT22;7171;50.936;6.764;2022-12-11T00:21:25;2.50;99.90
14182;DHT22;7171;50.936;6.764;2022-12-11T00:23:52;2.50;99.90
14182;DHT22;7171;50.936;6.764;2022-12-11T00:26:19;2.50;99.90
14182;DHT22;7171;50.936;6.764;2022-12-11T00:28:46;2.50;99.90
14182;DHT22;7171;50.936;6.764;2022-12-11T00:31:15;2.50;99.90
14182;DHT22;7171;50.936;6.764;2022-12-11T00:33:43;2.50;99.90
14182;DHT22;7171;50.936;6.764;2022-12-11T00:36:13;2.50;99.90
14182;DHT22;7171;50.936;6.764;2022-12-11T00:38:40;2.50;99.90
14182;DHT22;7171;50.936;6.764;2022-12-11T00:41:07;2.50;99.90
14182;DHT22;7171;50.936;6.764;2022-12-11T00:43:34;2.50;99.90
14182;DHT22;7171;50.936;6.764;2022-12-11T00:46:00;2.50;99.90
14182;DHT22;7171;50.936;6.764;2022-12-11T00:48:27;2.50;99.90
14182;DHT22;7171;50.936;6.764;2022-12-11T00:50:54;2.50;99.90
14182;DHT22;7171;50.936;6.764;2022-12-11T00:53:22;2.50;99.90
14182;DHT22;7171;50.936;6.764;2022-12-11T00:55:49;2.50;99.90
14182;DHT22;7171;50.936;6.764;2022-12-11T00:58:16;2.60;99.90
14182;DHT22;7171;50.936;6.764;2022-12-11T01:00:43;2.50;99.90
14182;DHT22;7171;50.936;6.764;2022-12-11T01:03:12;2.60;99.90
14182;DHT22;7171;50.936;6.764;2022-12-11T01:05:39;2.50;99.90
14182;DHT22;7171;50.936;6.764;2022-12-11T01:08:06;2.50;99.90
14182;DHT22;7171;50.936;6.764;2022-12-11T01:10:34;2.50;99.90
14182;DHT22;7171;50.936;6.764;2022-12-11T01:13:03;2.50;99.90
14182;DHT22;7171;50.936;6.764;2022-12-11T01:15:32;2.50;99.90
14182;DHT22;7171;50.936;6.764;2022-12-11T01:17:59;2.50;99.90
14182;DHT22;7171;50.936;6.764;2022-12-11T01:20:27;2.50;99.90
14182;DHT22;7171;50.936;6.764;2022-12-11T01:22:56;2.40;99.90
14182;DHT22;7171;50.936;6.764;2022-12-11T01:25:23;2.40;99.90
14182;DHT22;7171;50.936;6.764;2022-12-11T01:27:52;2.40;99.90
14182;DHT22;7171;50.936;6.764;2022-12-11T01:30:19;2.40;99.90
14182;DHT22;7171;50.936;6.764;2022-12-11T01:32:47;2.40;99.90
14182;DHT22;7171;50.936;6.764;2022-12-11T01:35:14;2.40;99.90
14182;DHT22;7171;50.936;6.764;2022-12-11T01:37:41;2.40;99.90
14182;DHT22;7171;50.936;6.764;2022-12-11T01:40:10;2.40;99.90
14182;DHT22;7171;50.936;6.764;2022-12-11T01:42:37;2.40;99.90
14182;DHT22;7171;50.936;6.764;2022-12-11T01:45:31;2.40;99.90
14182;DHT22;7171;50.936;6.764;2022-12-11T01:48:03;2.40;99.90
14182;DHT22;7171;50.936;6.764;2022-12-11T01:50:34;2.40;99.90
14182;DHT22;7171;50.936;6.764;2022-12-11T01:53:02;2.40;99.90
14182;DHT22;7171;50.936;6.764;2022-12-11T01:55:30;2.40;99.90
14182;DHT22;7171;50.936;6.764;2022-12-11T01:57:58;2.40;99.90
14182;DHT22;7171;50.936;6.764;2022-12-11T02:00:27;2.40;99.90
14182;DHT22;7171;50.936;6.764;2022-12-11T02:02:53;2.30;99.90
14182;DHT22;7171;50.936;6.764;2022-12-11T02:05:20;2.30;99.90
14182;DHT22;7171;50.936;6.764;2022-12-11T02:07:49;2.30;99.90
14182;DHT22;7171;50.936;6.764;2022-12-11T02:10:17;2.30;99.90
14182;DHT22;7171;50.936;6.764;2022-12-11T02:12:52;2.30;99.90
14182;DHT22;7171;50.936;6.764;2022-12-11T02:15:30;2.30;99.90
14182;DHT22;7171;50.936;6.764;2022-12-11T02:18:06;2.30;99.90
14182;DHT22;7171;50.936;6.764;2022-12-11T02:20:37;2.30;99.90
14182;DHT22;7171;50.936;6.764;2022-12-11T02:23:32;2.30;99.90
14182;DHT22;7171;50.936;6.764;2022-12-11T02:26:16;2.30;99.90
14182;DHT22;7171;50.936;6.764;2022-12-11T02:28:49;2.30;99.90
14182;DHT22;7171;50.936;6.764;2022-12-11T02:31:22;2.30;99.90
14182;DHT22;7171;50.936;6.764;2022-12-11T02:33:57;2.40;99.90
14182;DHT22;7171;50.936;6.764;2022-12-11T02:36:28;2.40;99.90
14182;DHT22;7171;50.936;6.764;2022-12-11T02:38:58;2.40;99.90
14182;DHT22;7171;50.936;6.764;2022-12-11T02:41:27;2.40;99.90
14182;DHT22;7171;50.936;6.764;2022-12-11T02:43:57;2.40;99.90
14182;DHT22;7171;50.936;6.764;2022-12-11T02:46:24;2.50;99.90
14182;DHT22;7171;50.936;6.764;2022-12-11T02:48:52;2.50;99.90
14182;DHT22;7171;50.936;6.764;2022-12-11T02:51:22;2.50;99.90
14182;DHT22;7171;50.936;6.764;2022-12-11T02:53:50;2.50;99.90
14182;DHT22;7171;50.936;6.764;2022-12-11T02:56:23;2.50;99.90
14182;DHT22;7171;50.936;6.764;2022-12-11T02:58:56;2.50;99.90
14182;DHT22;7171;50.936;6.764;2022-12-11T03:01:25;2.50;99.90
14182;DHT22;7171;50.936;6.764;2022-12-11T03:03:52;2.60;99.90
14182;DHT22;7171;50.936;6.764;2022-12-11T03:06:22;2.50;99.90
14182;DHT22;7171;50.936;6.764;2022-12-11T03:08:50;2.50;99.90
14182;DHT22;7171;50.936;6.764;2022-12-11T03:11:17;2.50;99.90
14182;DHT22;7171;50.936;6.764;2022-12-11T03:13:44;2.50;99.90
14182;DHT22;7171;50.936;6.764;2022-12-11T03:16:16;2.50;99.90
14182;DHT22;7171;50.936;6.764;2022-12-11T03:18:50;2.50;99.90
14182;DHT22;7171;50.936;6.764;2022-12-11T03:21:21;2.50;99.90
14182;DHT22;7171;50.936;6.764;2022-12-11T03:23:53;2.50;99.90
14182;DHT22;7171;50.936;6.764;2022-12-11T03:26:23;2.50;99.90
14182;DHT22;7171;50.936;6.764;2022-12-11T03:28:54;2.50;99.90
14182;DHT22;7171;50.936;6.764;2022-12-11T03:31:26;2.60;99.90
14182;DHT22;7171;50.936;6.764;2022-12-11T03:33:57;2.60;99.90
14182;DHT22;7171;50.936;6.764;2022-12-11T03:36:35;2.60;99.90
14182;DHT22;7171;50.936;6.764;2022-12-11T03:39:07;2.70;99.90
14182;DHT22;7171;50.936;6.764;2022-12-11T03:41:36;2.70;99.90
14182;DHT22;7171;50.936;6.764;2022-12-11T03:44:05;2.70;99.90
14182;DHT22;7171;50.936;6.764;2022-12-11T03:46:36;2.70;99.90
14182;DHT22;7171;50.936;6.764;2022-12-11T03:49:07;2.70;99.90
14182;DHT22;7171;50.936;6.764;2022-12-11T03:51:37;2.70;99.90
14182;DHT22;7171;50.936;6.764;2022-12-11T03:54:04;2.80;99.90
14182;DHT22;7171;50.936;6.764;2022-12-11T03:56:34;2.80;99.90
14182;DHT22;7171;50.936;6.764;2022-12-11T03:59:02;2.80;99.90
14182;DHT22;7171;50.936;6.764;2022-12-11T04:01:29;2.80;99.90
14182;DHT22;7171;50.936;6.764;2022-12-11T04:03:57;2.80;99.90
14182;DHT22;7171;50.936;6.764;2022-12-11T04:06:23;2.80;99.90
14182;DHT22;7171;50.936;6.764;2022-12-11T04:08:50;2.80;99.90
14182;DHT22;7171;50.936;6.764;2022-12-11T04:11:17;2.80;99.90
14182;DHT22;7171;50.936;6.764;2022-12-11T04:13:57;2.80;99.90
14182;DHT22;7171;50.936;6.764;2022-12-11T04:16:42;2.80;99.90
14182;DHT22;7171;50.936;6.764;2022-12-11T04:19:10;2.80;99.90
14182;DHT22;7171;50.936;6.764;2022-12-11T04:21:54;2.80;99.90
14182;DHT22;7171;50.936;6.764;2022-12-11T04:24:38;2.80;99.90
14182;DHT22;7171;50.936;6.764;2022-12-11T04:27:05;2.80;99.90
14182;DHT22;7171;50.936;6.764;2022-12-11T04:29:32;2.80;99.90
14182;DHT22;7171;50.936;6.764;2022-12-11T04:31:59;2.80;99.90
14182;DHT22;7171;50.936;6.764;2022-12-11T04:34:27;2.90;99.90
14182;DHT22;7171;50.936;6.764;2022-12-11T04:36:54;2.90;99.90
14182;DHT22;7171;50.936;6.764;2022-12-11T04:39:20;2.80;99.90
14182;DHT22;7171;50.936;6.764;2022-12-11T04:41:47;2.80;99.90
14182;DHT22;7171;50.936;6.764;2022-12-11T04:44:14;2.80;99.90
14182;DHT22;7171;50.936;6.764;2022-12-11T04:46:40;2.80;99.90
14182;DHT22;7171;50.936;6.764;2022-12-11T04:49:07;2.90;99.90
14182;DHT22;7171;50.936;6.764;2022-12-11T04:51:35;2.90;99.90
14182;DHT22;7171;50.936;6.764;2022-12-11T04:54:02;2.90;99.90
14182;DHT22;7171;50.936;6.764;2022-12-11T04:56:29;2.90;99.90
14182;DHT22;7171;50.936;6.764;2022-12-11T04:58:56;2.90;99.90
14182;DHT22;7171;50.936;6.764;2022-12-11T05:01:23;2.90;99.90
14182;DHT22;7171;50.936;6.764;2022-12-11T05:03:49;2.90;99.90
14182;DHT22;7171;50.936;6.764;2022-12-11T05:06:16;2.90;99.90
14182;DHT22;7171;50.936;6.764;2022-12-11T05:08:44;2.90;99.90
14182;DHT22;7171;50.936;6.764;2022-12-11T05:11:13;2.90;99.90
14182;DHT22;7171;50.936;6.764;2022-12-11T05:13:41;2.90;99.90
14182;DHT22;7171;50.936;6.764;2022-12-11T05:16:10;2.90;99.90
14182;DHT22;7171;50.936;6.764;2022-12-11T05:18:37;3.00;99.90
14182;DHT22;7171;50.936;6.764;2022-12-11T05:21:05;2.90;99.90
14182;DHT22;7171;50.936;6.764;2022-12-11T05:23:33;2.90;99.90
14182;DHT22;7171;50.936;6.764;2022-12-11T05:26:03;2.90;99.90
14182;DHT22;7171;50.936;6.764;2022-12-11T05:28:32;2.90;99.90
14182;DHT22;7171;50.936;6.764;2022-12-11T05:31:00;3.00;99.90
14182;DHT22;7171;50.936;6.764;2022-12-11T05:33:28;2.90;99.90
14182;DHT22;7171;50.936;6.764;2022-12-11T05:35:55;3.00;99.90
14182;DHT22;7171;50.936;6.764;2022-12-11T05:38:22;3.00;99.90
14182;DHT22;7171;50.936;6.764;2022-12-11T05:40:55;3.00;99.90
14182;DHT22;7171;50.936;6.764;2022-12-11T05:43:23;3.00;99.90
14182;DHT22;7171;50.936;6.764;2022-12-11T05:45:50;2.90;99.90
14182;DHT22;7171;50.936;6.764;2022-12-11T05:48:17;3.00;99.90
14182;DHT22;7171;50.936;6.764;2022-12-11T05:50:44;2.90;99.90
14182;DHT22;7171;50.936;6.764;2022-12-11T05:53:11;3.00;99.90
14182;DHT22;7171;50.936;6.764;2022-12-11T05:55:37;2.90;99.90
14182;DHT22;7171;50.936;6.764;2022-12-11T05:58:04;2.90;99.90
14182;DHT22;7171;50.936;6.764;2022-12-11T06:00:32;3.00;99.90
14182;DHT22;7171;50.936;6.764;2022-12-11T06:02:59;2.90;99.90
14182;DHT22;7171;50.936;6.764;2022-12-11T06:05:26;3.00;99.90
14182;DHT22;7171;50.936;6.764;2022-12-11T06:07:52;3.00;99.90
14182;DHT22;7171;50.936;6.764;2022-12-11T06:10:19;3.00;99.90
14182;DHT22;7171;50.936;6.764;2022-12-11T06:12:46;2.90;99.90
14182;DHT22;7171;50.936;6.764;2022-12-11T06:15:12;2.90;99.90
14182;DHT22;7171;50.936;6.764;2022-12-11T06:17:41;2.90;99.90
14182;DHT22;7171;50.936;6.764;2022-12-11T06:20:08;2.90;99.90
14182;DHT22;7171;50.936;6.764;2022-12-11T06:22:35;2.90;99.90
14182;DHT22;7171;50.936;6.764;2022-12-11T06:25:01;2.90;99.90
14182;DHT22;7171;50.936;6.764;2022-12-11T06:27:28;2.90;99.90
14182;DHT22;7171;50.936;6.764;2022-12-11T06:29:55;2.90;99.90
14182;DHT22;7171;50.936;6.764;2022-12-11T06:32:22;2.90;99.90
14182;DHT22;7171;50.936;6.764;2022-12-11T06:34:50;2.90;99.90
14182;DHT22;7171;50.936;6.764;2022-12-11T06:37:17;2.90;99.90
14182;DHT22;7171;50.936;6.764;2022-12-11T06:39:43;2.90;99.90
14182;DHT22;7171;50.936;6.764;2022-12-11T06:42:10;2.90;99.90
14182;DHT22;7171;50.936;6.764;2022-12-11T06:44:37;2.80;99.90
14182;DHT22;7171;50.936;6.764;2022-12-11T06:47:04;2.80;99.90
14182;DHT22;7171;50.936;6.764;2022-12-11T06:49:31;2.80;99.90
14182;DHT22;7171;50.936;6.764;2022-12-11T06:51:59;2.90;99.90
14182;DHT22;7171;50.936;6.764;2022-12-11T06:54:26;2.80;99.90
14182;DHT22;7171;50.936;6.764;2022-12-11T06:56:53;2.80;99.90
14182;DHT22;7171;50.936;6.764;2022-12-11T06:59:20;2.80;99.90
14182;DHT22;7171;50.936;6.764;2022-12-11T07:01:46;2.80;99.90
14182;DHT22;7171;50.936;6.764;2022-12-11T07:04:13;2.80;99.90
14182;DHT22;7171;50.936;6.764;2022-12-11T07:06:40;2.80;99.90
14182;DHT22;7171;50.936;6.764;2022-12-11T07:09:08;2.80;99.90
14182;DHT22;7171;50.936;6.764;2022-12-11T07:11:35;2.80;99.90
14182;DHT22;7171;50.936;6.764;2022-12-11T07:14:02;2.90;99.90
14182;DHT22;7171;50.936;6.764;2022-12-11T07:16:29;2.90;99.90
14182;DHT22;7171;50.936;6.764;2022-12-11T07:18:56;2.90;99.90
14182;DHT22;7171;50.936;6.764;2022-12-11T07:21:22;2.90;99.90
14182;DHT22;7171;50.936;6.764;2022-12-11T07:23:49;2.90;99.90
14182;DHT22;7171;50.936;6.764;2022-12-11T07:26:19;2.90;99.90
14182;DHT22;7171;50.936;6.764;2022-12-11T07:28:46;2.90;99.90
14182;DHT22;7171;50.936;6.764;2022-12-11T07:31:14;2.90;99.90
14182;DHT22;7171;50.936;6.764;2022-12-11T07:33:42;2.90;99.90
14182;DHT22;7171;50.936;6.764;2022-12-11T07:36:10;2.90;99.90
14182;DHT22;7171;50.936;6.764;2022-12-11T07:38:37;3.00;99.90
14182;DHT22;7171;50.936;6.764;2022-12-11T07:41:06;3.00;99.90
14182;DHT22;7171;50.936;6.764;2022-12-11T07:43:35;3.00;99.90
14182;DHT22;7171;50.936;6.764;2022-12-11T07:46:03;3.00;99.90
14182;DHT22;7171;50.936;6.764;2022-12-11T07:48:30;3.00;99.90
14182;DHT22;7171;50.936;6.764;2022-12-11T07:51:07;3.00;99.90
14182;DHT22;7171;50.936;6.764;2022-12-11T07:53:34;3.00;99.90
14182;DHT22;7171;50.936;6.764;2022-12-11T07:56:02;3.00;99.90
14182;DHT22;7171;50.936;6.764;2022-12-11T07:58:29;3.00;99.90
14182;DHT22;7171;50.936;6.764;2022-12-11T08:00:58;3.00;99.90
14182;DHT22;7171;50.936;6.764;2022-12-11T08:03:24;3.00;99.90
14182;DHT22;7171;50.936;6.764;2022-12-11T08:05:52;3.00;99.90
14182;DHT22;7171;50.936;6.764;2022-12-11T08:08:18;3.00;99.90
14182;DHT22;7171;50.936;6.764;2022-12-11T08:10:45;3.00;99.90
14182;DHT22;7171;50.936;6.764;2022-12-11T08:13:12;3.00;99.90
14182;DHT22;7171;50.936;6.764;2022-12-11T08:15:39;3.00;99.90
14182;DHT22;7171;50.936;6.764;2022-12-11T08:18:08;3.00;99.90
14182;DHT22;7171;50.936;6.764;2022-12-11T08:20:36;3.00;99.90
14182;DHT22;7171;50.936;6.764;2022-12-11T08:23:03;3.00;99.90
14182;DHT22;7171;50.936;6.764;2022-12-11T08:25:30;3.00;99.90
14182;DHT22;7171;50.936;6.764;2022-12-11T08:27:57;3.00;99.90
14182;DHT22;7171;50.936;6.764;2022-12-11T08:30:24;3.00;99.90
14182;DHT22;7171;50.936;6.764;2022-12-11T08:32:50;3.00;99.90
14182;DHT22;7171;50.936;6.764;2022-12-11T08:35:19;3.00;99.90
14182;DHT22;7171;50.936;6.764;2022-12-11T08:37:45;3.00;99.90
14182;DHT22;7171;50.936;6.764;2022-12-11T08:40:12;3.00;99.90
14182;DHT22;7171;50.936;6.764;2022-12-11T08:42:39;3.00;99.90
14182;DHT22;7171;50.936;6.764;2022-12-11T08:45:07;3.00;99.90
14182;DHT22;7171;50.936;6.764;2022-12-11T08:47:34;3.00;99.90
14182;DHT22;7171;50.936;6.764;2022-12-11T08:50:00;3.10;99.90
14182;DHT22;7171;50.936;6.764;2022-12-11T08:52:28;3.10;99.90
14182;DHT22;7171;50.936;6.764;2022-12-11T08:54:55;3.10;99.90
14182;DHT22;7171;50.936;6.764;2022-12-11T08:57:22;3.10;99.90
14182;DHT22;7171;50.936;6.764;2022-12-11T08:59:49;3.10;99.90
14182;DHT22;7171;50.936;6.764;2022-12-11T09:02:16;3.10;99.90
14182;DHT22;7171;50.936;6.764;2022-12-11T09:04:42;3.10;99.90
14182;DHT22;7171;50.936;6.764;2022-12-11T09:07:09;3.10;99.90
14182;DHT22;7171;50.936;6.764;2022-12-11T09:09:39;3.20;99.90
14182;DHT22;7171;50.936;6.764;2022-12-11T09:12:05;3.20;99.90
14182;DHT22;7171;50.936;6.764;2022-12-11T09:14:32;3.20;99.90
14182;DHT22;7171;50.936;6.764;2022-12-11T09:16:59;3.20;99.90
14182;DHT22;7171;50.936;6.764;2022-12-11T09:19:26;3.20;99.90
14182;DHT22;7171;50.936;6.764;2022-12-11T09:21:53;3.20;99.90
14182;DHT22;7171;50.936;6.764;2022-12-11T09:24:20;3.20;99.90
14182;DHT22;7171;50.936;6.764;2022-12-11T09:26:48;3.20;99.90
14182;DHT22;7171;50.936;6.764;2022-12-11T09:29:14;3.20;99.90
14182;DHT22;7171;50.936;6.764;2022-12-11T09:31:41;3.20;99.90
14182;DHT22;7171;50.936;6.764;2022-12-11T09:34:11;3.20;99.90
14182;DHT22;7171;50.936;6.764;2022-12-11T09:36:38;3.20;99.90
14182;DHT22;7171;50.936;6.764;2022-12-11T09:39:07;3.20;99.90
14182;DHT22;7171;50.936;6.764;2022-12-11T09:41:36;3.20;99.90
14182;DHT22;7171;50.936;6.764;2022-12-11T09:44:17;3.20;99.90
14182;DHT22;7171;50.936;6.764;2022-12-11T09:46:46;3.20;99.90
14182;DHT22;7171;50.936;6.764;2022-12-11T09:49:24;3.20;99.90
14182;DHT22;7171;50.936;6.764;2022-12-11T09:51:59;3.30;99.90
14182;DHT22;7171;50.936;6.764;2022-12-11T09:54:29;3.30;99.90
14182;DHT22;7171;50.936;6.764;2022-12-11T09:57:03;3.30;99.90
14182;DHT22;7171;50.936;6.764;2022-12-11T09:59:40;3.30;99.90
14182;DHT22;7171;50.936;6.764;2022-12-11T10:02:21;3.30;99.90
14182;DHT22;7171;50.936;6.764;2022-12-11T10:04:57;3.30;99.90
14182;DHT22;7171;50.936;6.764;2022-12-11T10:07:35;3.30;99.90
14182;DHT22;7171;50.936;6.764;2022-12-11T10:10:11;3.30;99.90
14182;DHT22;7171;50.936;6.764;2022-12-11T10:12:45;3.30;99.90
14182;DHT22;7171;50.936;6.764;2022-12-11T10:15:28;3.30;99.90
14182;DHT22;7171;50.936;6.764;2022-12-11T10:17:59;3.30;99.90
14182;DHT22;7171;50.936;6.764;2022-12-11T10:20:29;3.40;99.90
14182;DHT22;7171;50.936;6.764;2022-12-11T10:23:00;3.40;99.90
14182;DHT22;7171;50.936;6.764;2022-12-11T10:25:29;3.30;99.90
14182;DHT22;7171;50.936;6.764;2022-12-11T10:27:58;3.40;99.90
14182;DHT22;7171;50.936;6.764;2022-12-11T10:30:31;3.40;99.90
14182;DHT22;7171;50.936;6.764;2022-12-11T10:33:07;3.40;99.90
14182;DHT22;7171;50.936;6.764;2022-12-11T10:35:42;3.40;99.90
14182;DHT22;7171;50.936;6.764;2022-12-11T10:38:13;3.40;99.90
14182;DHT22;7171;50.936;6.764;2022-12-11T10:40:44;3.40;99.90
14182;DHT22;7171;50.936;6.764;2022-12-11T10:43:11;3.40;99.90
14182;DHT22;7171;50.936;6.764;2022-12-11T10:45:48;3.40;99.90
14182;DHT22;7171;50.936;6.764;2022-12-11T10:48:15;3.40;99.90
14182;DHT22;7171;50.936;6.764;2022-12-11T10:50:43;3.40;99.90
14182;DHT22;7171;50.936;6.764;2022-12-11T10:53:20;3.40;99.90
14182;DHT22;7171;50.936;6.764;2022-12-11T10:55:47;3.50;99.90
14182;DHT22;7171;50.936;6.764;2022-12-11T10:58:16;3.50;99.90
14182;DHT22;7171;50.936;6.764;2022-12-11T11:00:46;3.50;99.90
14182;DHT22;7171;50.936;6.764;2022-12-11T11:03:21;3.50;99.90
14182;DHT22;7171;50.936;6.764;2022-12-11T11:05:49;3.50;99.90
14182;DHT22;7171;50.936;6.764;2022-12-11T11:08:27;3.50;99.90
14182;DHT22;7171;50.936;6.764;2022-12-11T11:10:55;3.50;99.90
14182;DHT22;7171;50.936;6.764;2022-12-11T11:13:24;3.50;99.90
14182;DHT22;7171;50.936;6.764;2022-12-11T11:15:59;3.50;99.90
14182;DHT22;7171;50.936;6.764;2022-12-11T11:18:28;3.50;99.90
14182;DHT22;7171;50.936;6.764;2022-12-11T11:20:55;3.50;99.90
14182;DHT22;7171;50.936;6.764;2022-12-11T11:23:23;3.50;99.90
14182;DHT22;7171;50.936;6.764;2022-12-11T11:25:52;3.50;99.90
14182;DHT22;7171;50.936;6.764;2022-12-11T11:28:22;3.50;99.90
14182;DHT22;7171;50.936;6.764;2022-12-11T11:31:02;3.50;99.90
14182;DHT22;7171;50.936;6.764;2022-12-11T11:33:30;3.50;99.90
14182;DHT22;7171;50.936;6.764;2022-12-11T11:35:59;3.50;99.90
14182;DHT22;7171;50.936;6.764;2022-12-11T11:38:29;3.50;99.90
14182;DHT22;7171;50.936;6.764;2022-12-11T11:41:07;3.50;99.90
14182;DHT22;7171;50.936;6.764;2022-12-11T11:46:22;3.50;99.90
14182;DHT22;7171;50.936;6.764;2022-12-11T11:48:57;3.50;99.90
14182;DHT22;7171;50.936;6.764;2022-12-11T11:51:29;3.50;99.90
14182;DHT22;7171;50.936;6.764;2022-12-11T11:54:00;3.50;99.90
14182;DHT22;7171;50.936;6.764;2022-12-11T11:56:30;3.50;99.90
14182;DHT22;7171;50.936;6.764;2022-12-11T11:59:06;3.50;99.90
14182;DHT22;7171;50.936;6.764;2022-12-11T12:01:40;3.50;99.90
14182;DHT22;7171;50.936;6.764;2022-12-11T12:04:07;3.50;99.90
14182;DHT22;7171;50.936;6.764;2022-12-11T12:06:45;3.50;99.90
14182;DHT22;7171;50.936;6.764;2022-12-11T12:09:29;3.50;99.90
14182;DHT22;7171;50.936;6.764;2022-12-11T12:12:08;3.50;99.90
14182;DHT22;7171;50.936;6.764;2022-12-11T12:14:42;3.50;99.90
14182;DHT22;7171;50.936;6.764;2022-12-11T12:17:24;3.50;99.90
14182;DHT22;7171;50.936;6.764;2022-12-11T12:20:07;3.50;99.90
14182;DHT22;7171;50.936;6.764;2022-12-11T12:22:51;3.60;99.90
14182;DHT22;7171;50.936;6.764;2022-12-11T12:25:25;3.60;99.90
14182;DHT22;7171;50.936;6.764;2022-12-11T12:27:59;3.60;99.90
14182;DHT22;7171;50.936;6.764;2022-12-11T12:30:35;3.70;99.90
14182;DHT22;7171;50.936;6.764;2022-12-11T12:33:18;3.70;99.90
14182;DHT22;7171;50.936;6.764;2022-12-11T12:35:53;3.70;99.90
14182;DHT22;7171;50.936;6.764;2022-12-11T12:38:29;3.70;99.90
14182;DHT22;7171;50.936;6.764;2022-12-11T12:41:09;3.70;99.90
14182;DHT22;7171;50.936;6.764;2022-12-11T12:44:01;3.70;99.90
14182;DHT22;7171;50.936;6.764;2022-12-11T12:46:39;3.60;99.90
14182;DHT22;7171;50.936;6.764;2022-12-11T12:49:13;3.60;99.90
14182;DHT22;7171;50.936;6.764;2022-12-11T12:51:41;3.60;99.90
14182;DHT22;7171;50.936;6.764;2022-12-11T12:54:14;3.60;99.90
14182;DHT22;7171;50.936;6.764;2022-12-11T12:56:41;3.60;99.90
14182;DHT22;7171;50.936;6.764;2022-12-11T12:59:18;3.60;99.90
14182;DHT22;7171;50.936;6.764;2022-12-11T13:01:47;3.60;99.90
14182;DHT22;7171;50.936;6.764;2022-12-11T13:04:33;3.60;99.90
14182;DHT22;7171;50.936;6.764;2022-12-11T13:07:10;3.60;99.90
14182;DHT22;7171;50.936;6.764;2022-12-11T13:09:39;3.60;99.90
14182;DHT22;7171;50.936;6.764;2022-12-11T13:12:12;3.60;99.90
14182;DHT22;7171;50.936;6.764;2022-12-11T13:14:40;3.70;99.90
14182;DHT22;7171;50.936;6.764;2022-12-11T13:17:23;3.70;99.90
14182;DHT22;7171;50.936;6.764;2022-12-11T13:20:10;3.70;99.90
14182;DHT22;7171;50.936;6.764;2022-12-11T13:22:47;3.80;99.90
14182;DHT22;7171;50.936;6.764;2022-12-11T13:25:23;3.80;99.90
14182;DHT22;7171;50.936;6.764;2022-12-11T13:27:50;3.80;99.90
14182;DHT22;7171;50.936;6.764;2022-12-11T13:30:23;3.80;99.90
14182;DHT22;7171;50.936;6.764;2022-12-11T13:32:59;3.80;99.90
14182;DHT22;7171;50.936;6.764;2022-12-11T13:35:30;3.80;99.90
14182;DHT22;7171;50.936;6.764;2022-12-11T13:38:02;3.90;99.90
14182;DHT22;7171;50.936;6.764;2022-12-11T13:40:36;3.90;99.90
14182;DHT22;7171;50.936;6.764;2022-12-11T13:43:06;3.90;99.90
14182;DHT22;7171;50.936;6.764;2022-12-11T13:45:44;3.90;99.90
14182;DHT22;7171;50.936;6.764;2022-12-11T13:48:18;3.90;99.90
14182;DHT22;7171;50.936;6.764;2022-12-11T13:50:49;3.90;99.90
14182;DHT22;7171;50.936;6.764;2022-12-11T13:53:17;4.00;99.90
14182;DHT22;7171;50.936;6.764;2022-12-11T13:55:45;3.90;99.90
14182;DHT22;7171;50.936;6.764;2022-12-11T13:58:16;3.90;99.90
14182;DHT22;7171;50.936;6.764;2022-12-11T14:00:53;4.00;99.90
14182;DHT22;7171;50.936;6.764;2022-12-11T14:03:22;4.00;99.90
14182;DHT22;7171;50.936;6.764;2022-12-11T14:05:50;4.00;99.90
14182;DHT22;7171;50.936;6.764;2022-12-11T14:08:20;4.00;99.90
14182;DHT22;7171;50.936;6.764;2022-12-11T14:10:51;4.00;99.90
14182;DHT22;7171;50.936;6.764;2022-12-11T14:13:21;4.00;99.90
14182;DHT22;7171;50.936;6.764;2022-12-11T14:15:48;4.00;99.90
14182;DHT22;7171;50.936;6.764;2022-12-11T14:18:19;4.00;99.90
14182;DHT22;7171;50.936;6.764;2022-12-11T14:20:54;4.00;99.90
14182;DHT22;7171;50.936;6.764;2022-12-11T14:23:23;4.00;99.90
14182;DHT22;7171;50.936;6.764;2022-12-11T14:25:54;4.00;99.90
14182;DHT22;7171;50.936;6.764;2022-12-11T14:28:22;4.00;99.90
14182;DHT22;7171;50.936;6.764;2022-12-11T14:30:53;4.00;99.90
14182;DHT22;7171;50.936;6.764;2022-12-11T14:33:23;4.00;99.90
14182;DHT22;7171;50.936;6.764;2022-12-11T14:35:51;4.00;99.90
14182;DHT22;7171;50.936;6.764;2022-12-11T14:38:24;4.00;99.90
14182;DHT22;7171;50.936;6.764;2022-12-11T14:40:55;4.00;99.90
14182;DHT22;7171;50.936;6.764;2022-12-11T14:43:27;4.00;99.90
14182;DHT22;7171;50.936;6.764;2022-12-11T14:45:59;4.00;99.90
14182;DHT22;7171;50.936;6.764;2022-12-11T14:48:31;4.00;99.90
14182;DHT22;7171;50.936;6.764;2022-12-11T14:51:04;4.00;99.90
14182;DHT22;7171;50.936;6.764;2022-12-11T14:53:35;4.00;99.90
14182;DHT22;7171;50.936;6.764;2022-12-11T14:56:05;4.00;99.90
14182;DHT22;7171;50.936;6.764;2022-12-11T14:58:37;4.00;99.90
14182;DHT22;7171;50.936;6.764;2022-12-11T15:01:19;4.10;99.90
14182;DHT22;7171;50.936;6.764;2022-12-11T15:03:46;4.10;99.90
14182;DHT22;7171;50.936;6.764;2022-12-11T15:06:24;4.10;99.90
14182;DHT22;7171;50.936;6.764;2022-12-11T15:08:55;4.10;99.90
14182;DHT22;7171;50.936;6.764;2022-12-11T15:11:23;4.10;99.90
14182;DHT22;7171;50.936;6.764;2022-12-11T15:13:52;4.10;99.90
14182;DHT22;7171;50.936;6.764;2022-12-11T15:16:21;4.00;99.90
14182;DHT22;7171;50.936;6.764;2022-12-11T15:18:49;4.00;99.90
14182;DHT22;7171;50.936;6.764;2022-12-11T15:21:18;4.00;99.90
14182;DHT22;7171;50.936;6.764;2022-12-11T15:23:50;4.00;99.90
14182;DHT22;7171;50.936;6.764;2022-12-11T15:26:20;4.00;99.90
14182;DHT22;7171;50.936;6.764;2022-12-11T15:28:59;4.00;99.90
14182;DHT22;7171;50.936;6.764;2022-12-11T15:31:27;4.00;99.90
14182;DHT22;7171;50.936;6.764;2022-12-11T15:33:55;3.90;99.90
14182;DHT22;7171;50.936;6.764;2022-12-11T15:36:24;3.90;99.90
14182;DHT22;7171;50.936;6.764;2022-12-11T15:38:51;3.90;99.90
14182;DHT22;7171;50.936;6.764;2022-12-11T15:41:19;3.90;99.90
14182;DHT22;7171;50.936;6.764;2022-12-11T15:43:49;3.90;99.90
14182;DHT22;7171;50.936;6.764;2022-12-11T15:46:18;3.90;99.90
14182;DHT22;7171;50.936;6.764;2022-12-11T15:48:46;3.90;99.90
14182;DHT22;7171;50.936;6.764;2022-12-11T15:51:13;3.90;99.90
14182;DHT22;7171;50.936;6.764;2022-12-11T15:53:40;3.90;99.90
14182;DHT22;7171;50.936;6.764;2022-12-11T15:56:09;3.90;99.90
14182;DHT22;7171;50.936;6.764;2022-12-11T15:58:40;3.90;99.90
14182;DHT22;7171;50.936;6.764;2022-12-11T16:01:07;3.90;99.90
14182;DHT22;7171;50.936;6.764;2022-12-11T16:03:33;3.90;99.90
14182;DHT22;7171;50.936;6.764;2022-12-11T16:06:01;3.90;99.90
14182;DHT22;7171;50.936;6.764;2022-12-11T16:08:27;3.90;99.90
14182;DHT22;7171;50.936;6.764;2022-12-11T16:10:54;3.90;99.90
14182;DHT22;7171;50.936;6.764;2022-12-11T16:13:21;3.90;99.90
14182;DHT22;7171;50.936;6.764;2022-12-11T16:15:50;3.90;99.90
14182;DHT22;7171;50.936;6.764;2022-12-11T16:18:20;3.90;99.90
14182;DHT22;7171;50.936;6.764;2022-12-11T16:20:48;3.90;99.90
14182;DHT22;7171;50.936;6.764;2022-12-11T16:23:15;3.90;99.90